KCKB/CKB METAR and TAF weather

Enter ICAO airport designator
Station Type Date Time Source
KCKB METAR 2019/06/20 07:15 UTC NOAA

KCKB 200715Z AUTO 18003KT 10SM FEW025 21/19 A2966 RMK AO2 T02110189


Station Type Date Time Source
KCKB Decoded METAR 2019/06/20 07:15 UTC NOAA

HARRISON/MARION REGIONAL, WV, United States (KCKB) 39-18N 080-13W 360M
Jun 20, 2019 - 03:15 AM EDT / 2019.06.20 0715 UTC
Wind: from the S (180 degrees) at 3 MPH (3 KT):0
Visibility: 10 mile(s):0
Sky conditions: mostly clear
Temperature: 70.0 F (21.1 C)
Dew Point: 66.0 F (18.9 C)
Relative Humidity: 87%
Pressure (altimeter): 29.66 in. Hg (1004 hPa)
ob: KCKB 200715Z AUTO 18003KT 10SM FEW025 21/19 A2966 RMK AO2 T02110189
cycle: 7

Station Type Date Time Source
KCKB TAF 2019/06/20 06:52 UTC NOAA

TAF KCKB 200549Z 2006/2106 VRB03KT P6SM VCTS BKN070CB
TEMPO 2006/2008 4SM -SHRA BR OVC025
FM201100 21006KT P6SM -SHRA VCTS OVC025CB
FM201400 22011G20KT P6SM VCTS OVC025CB
FM201800 23012G22KT P6SM OVC040
FM202300 25011G21KT 6SM -SHRA BR OVC025
FM210500 28010G17KT 5SM -SHRA BR OVC007

Example: see airport list